createdAt,value
2023-09-17T14:59:51.038Z,95761.28
2023-09-17T15:11:29.732Z,95743.16
2023-09-17T15:17:42.338Z,95741.03
2023-09-17T16:59:50.637Z,95731.56
2023-09-17T17:04:59.448Z,95723.34
2023-09-17T17:10:09.247Z,95722.34
2023-09-17T17:15:20.950Z,95712.75
2023-09-17T17:20:28.681Z,95709.63
2023-09-17T17:25:36.993Z,95707.38
2023-09-17T17:30:47.401Z,95704.38
2023-09-17T17:35:55.202Z,95706.22
2023-09-17T17:41:03.999Z,95702.94
2023-09-17T17:46:17.916Z,95700.97
2023-09-17T17:51:25.616Z,95699.31
2023-09-17T17:56:33.222Z,95695.69
2023-09-17T18:01:43.969Z,95692.81
2023-09-17T18:06:52.143Z,95689.66
2023-09-17T18:12:01.153Z,95685.34
2023-09-17T18:17:11.736Z,95677.31
2023-09-17T18:22:20.137Z,95671.50
2023-09-17T18:27:27.862Z,95674.31
2023-09-17T18:32:38.058Z,95675.47
2023-09-17T18:37:45.746Z,95678.25
2023-09-17T18:42:53.377Z,95670.09
2023-09-17T18:48:03.625Z,95678.75
2023-09-17T18:53:11.293Z,95679.44
2023-09-17T18:58:19.302Z,95678.19
2023-09-17T19:03:29.605Z,95679.94
2023-09-17T19:08:37.209Z,95669.63
2023-09-17T19:13:44.896Z,95676.69
2023-09-17T19:18:55.563Z,95681.38
2023-09-17T19:24:03.194Z,95685.19
2023-09-17T19:29:10.859Z,95684.66
2023-09-17T19:34:21.190Z,95694.34
2023-09-17T19:39:28.796Z,95691.34
2023-09-17T19:44:36.637Z,95688.97
2023-09-17T19:49:46.903Z,95693.16
2023-09-17T19:54:54.546Z,95694.91
2023-09-17T20:00:03.636Z,95681.34
2023-09-17T20:05:13.939Z,95685.22
2023-09-17T20:10:22.641Z,95681.44
2023-09-17T20:15:30.243Z,95662.38
2023-09-17T20:20:40.668Z,95657.00
2023-09-17T20:25:48.454Z,95663.22
2023-09-17T20:30:56.218Z,95662.59
2023-09-17T20:36:06.542Z,95665.28
2023-09-17T20:41:14.151Z,95665.84
2023-09-17T20:46:21.816Z,95658.63
2023-09-17T20:51:32.027Z,95655.50
2023-09-17T20:56:40.597Z,95654.75
2023-09-17T21:01:48.274Z,95662.94
2023-09-17T21:06:58.536Z,95661.44
